Time;durP1;ratioP1;P1;durP2;ratioP2;P2;SDS_P1;SDS_P2;PMS_P1;PMS_P2;Temp;Humidity;BMP_temperature;BMP_pressure;BME280_temperature;BME280_humidity;BME280_pressure;Samples;Min_cycle;Max_cycle;Signal;HPM_P1;HPM_P2
2022/01/23 00:02:15;;;;;;;17.42;8.75;;;;;;;;;;4957339;28;20157;-70
2022/01/23 00:04:55;;;;;;;15.00;8.00;;;;;;;;;;4951366;28;20939;-69
2022/01/23 00:07:26;;;;;;;13.90;7.10;;;;;;;;;;4959558;28;20501;-70
2022/01/23 00:09:55;;;;;;;14.40;6.55;;;;;;;;;;4957057;28;20206;-70
2022/01/23 00:12:25;;;;;;;15.32;6.57;;;;;;;;;;4937282;28;20046;-70
2022/01/23 00:17:38;;;;;;;12.18;5.95;;;;;;;;;;4934847;28;20783;-71
2022/01/23 00:20:08;;;;;;;12.60;6.07;;;;;;;;;;4922969;28;20200;-70
2022/01/23 00:22:40;;;;;;;13.57;6.10;;;;;;;;;;4924823;28;20060;-71
2022/01/23 00:30:41;;;;;;;;;;;;;;;;;;4926870;28;20967;-71
2022/01/23 00:33:08;;;;;;;;;;;;;;;;;;4955618;28;19956;-70
2022/01/23 00:35:36;;;;;;;13.10;5.03;;;;;;;;;;4980094;28;19918;-70
2022/01/23 00:38:05;;;;;;;13.75;5.80;;;;;;;;;;4974992;28;20104;-71
2022/01/23 00:40:34;;;;;;;10.80;4.95;;;;;;;;;;4966131;28;20034;-71
2022/01/23 00:43:01;;;;;;;11.35;4.90;;;;;;;;;;4977283;28;20108;-70
2022/01/23 00:45:42;;;;;;;10.43;4.70;;;;;;;;;;4982021;28;20069;-71
2022/01/23 00:48:09;;;;;;;12.13;4.80;;;;;;;;;;4963527;28;20054;-71
2022/01/23 00:50:40;;;;;;;13.43;5.10;;;;;;;;;;4975203;28;20034;-71
2022/01/23 00:53:11;;;;;;;11.32;5.45;;;;;;;;;;4961903;28;20034;-70
2022/01/23 00:55:44;;;;;;;12.00;5.55;;;;;;;;;;4981388;28;20034;-70
2022/01/23 00:58:17;;;;;;;12.45;5.05;;;;;;;;;;4959778;28;20038;-70
2022/01/23 01:00:45;;;;;;;15.30;5.97;;;;;;;;;;4959511;28;20620;-70
2022/01/23 01:03:12;;;;;;;13.73;5.93;;;;;;;;;;4990553;28;20042;-70
2022/01/23 01:05:40;;;;;;;12.88;5.70;;;;;;;;;;4978601;28;20096;-70
2022/01/23 01:08:09;;;;;;;15.02;7.55;;;;;;;;;;4955634;28;20497;-70
2022/01/23 01:10:45;;;;;;;18.58;9.32;;;;;;;;;;4978861;28;20061;-70
2022/01/23 01:13:15;;;;;;;18.95;9.00;;;;;;;;;;4979075;28;20044;-70
2022/01/23 01:16:35;;;;;;;15.68;7.80;;;;;;;;;;4983542;28;20057;-70
2022/01/23 01:35:29;;;;;;;12.15;5.30;;;;;;;;;;4976144;28;20197;-70
2022/01/23 01:37:56;;;;;;;11.80;4.60;;;;;;;;;;4970241;28;20164;-70
2022/01/23 01:40:27;;;;;;;12.18;4.70;;;;;;;;;;4976723;28;20117;-70
2022/01/23 01:42:54;;;;;;;10.45;4.55;;;;;;;;;;4975670;28;20076;-70
2022/01/23 01:45:21;;;;;;;;;;;;;;;;;;4981911;28;20558;-70
2022/01/23 01:47:48;;;;;;;9.32;3.97;;;;;;;;;;4958652;28;19918;-69
2022/01/23 01:50:15;;;;;;;;;;;;;;;;;;4977261;28;20040;-70
2022/01/23 01:52:42;;;;;;;12.45;4.22;;;;;;;;;;4979817;28;19960;-70
2022/01/23 01:55:17;;;;;;;11.00;4.40;;;;;;;;;;4975204;28;20070;-69
2022/01/23 01:57:52;;;;;;;;;;;;;;;;;;4982041;28;20037;-69
2022/01/23 02:00:45;;;;;;;11.60;4.32;;;;;;;;;;4976802;28;19924;-70
2022/01/23 02:08:48;;;;;;;10.15;3.67;;;;;;;;;;4979550;28;20117;-70
2022/01/23 02:11:24;;;;;;;10.80;3.97;;;;;;;;;;4981123;28;20457;-70
2022/01/23 02:14:13;;;;;;;11.45;4.10;;;;;;;;;;4982734;28;20405;-70
2022/01/23 02:25:27;;;;;;;9.70;3.72;;;;;;;;;;4917970;28;21213;-70
2022/01/23 02:55:28;;;;;;;8.98;3.17;;;;;;;;;;4824511;29;20148;-69
2022/01/23 02:58:00;;;;;;;9.73;3.35;;;;;;;;;;4827567;29;20036;-70
2022/01/23 03:00:36;;;;;;;9.82;3.33;;;;;;;;;;4908055;29;20031;-70
2022/01/23 03:03:12;;;;;;;8.80;3.28;;;;;;;;;;4904188;29;20107;-71
2022/01/23 03:05:40;;;;;;;10.23;3.60;;;;;;;;;;4893955;29;20055;-70
2022/01/23 03:08:27;;;;;;;10.32;3.90;;;;;;;;;;4890213;29;20456;-70
2022/01/23 03:11:05;;;;;;;10.45;3.80;;;;;;;;;;4898651;29;20090;-69
2022/01/23 03:27:25;;;;;;;11.35;4.10;;;;;;;;;;4978617;28;20511;-70
2022/01/23 03:30:13;;;;;;;11.35;4.05;;;;;;;;;;4978462;28;20848;-70
2022/01/23 03:32:48;;;;;;;10.63;4.55;;;;;;;;;;4978372;28;20077;-70
2022/01/23 03:35:18;;;;;;;11.73;4.63;;;;;;;;;;4984090;28;20157;-70
2022/01/23 03:37:46;;;;;;;11.00;4.82;;;;;;;;;;4977802;28;20036;-69
2022/01/23 03:40:16;;;;;;;11.02;4.72;;;;;;;;;;4985553;28;20033;-71
2022/01/23 03:42:45;;;;;;;9.15;3.35;;;;;;;;;;4967020;28;20105;-70
2022/01/23 03:50:42;;;;;;;9.57;3.60;;;;;;;;;;4994631;28;20038;-70
2022/01/23 03:53:09;;;;;;;8.52;3.20;;;;;;;;;;4979072;28;20046;-70
2022/01/23 03:55:37;;;;;;;8.48;3.15;;;;;;;;;;4988119;28;20073;-71
2022/01/23 03:58:09;;;;;;;10.27;3.47;;;;;;;;;;4978770;28;21969;-71
2022/01/23 04:00:36;;;;;;;8.10;2.90;;;;;;;;;;4984892;28;20033;-71
2022/01/23 04:03:05;;;;;;;10.98;3.47;;;;;;;;;;4976536;28;20045;-71
2022/01/23 04:05:33;;;;;;;9.95;3.13;;;;;;;;;;4962238;28;20061;-70
2022/01/23 04:08:01;;;;;;;9.70;3.13;;;;;;;;;;4980502;28;20042;-70
2022/01/23 04:10:31;;;;;;;7.88;2.83;;;;;;;;;;4983715;28;20037;-70
2022/01/23 04:13:22;;;;;;;7.35;2.60;;;;;;;;;;4977728;28;20040;-70
2022/01/23 04:19:12;;;;;;;8.55;2.95;;;;;;;;;;5004345;28;20508;-70
2022/01/23 04:33:17;;;;;;;7.13;2.35;;;;;;;;;;4960639;28;20877;-71
2022/01/23 05:00:10;;;;;;;8.57;2.28;;;;;;;;;;4981026;28;20117;-71
2022/01/23 05:05:11;;;;;;;7.85;2.17;;;;;;;;;;4983550;28;20155;-70
2022/01/23 05:07:44;;;;;;;8.88;2.35;;;;;;;;;;4980934;28;20057;-71
2022/01/23 05:10:11;;;;;;;9.10;2.75;;;;;;;;;;4983579;28;20053;-71
2022/01/23 05:12:43;;;;;;;7.53;2.20;;;;;;;;;;4980747;28;20811;-70
2022/01/23 05:15:12;;;;;;;7.45;2.10;;;;;;;;;;4983061;28;20034;-70
2022/01/23 05:17:40;;;;;;;7.35;2.35;;;;;;;;;;4985103;28;20113;-70
2022/01/23 05:20:07;;;;;;;7.32;2.33;;;;;;;;;;4979411;28;20141;-70
2022/01/23 05:22:40;;;;;;;8.65;2.10;;;;;;;;;;4987568;28;20022;-70
2022/01/23 05:25:28;;;;;;;7.13;2.15;;;;;;;;;;4984223;28;20046;-69
2022/01/23 05:27:55;;;;;;;6.43;2.00;;;;;;;;;;4981634;28;20034;-70
2022/01/23 05:30:22;;;;;;;5.20;1.60;;;;;;;;;;4982837;28;20033;-70
2022/01/23 05:32:50;;;;;;;5.53;1.70;;;;;;;;;;4981958;28;20091;-70
2022/01/23 05:35:22;;;;;;;8.27;2.25;;;;;;;;;;4985250;28;20046;-70
2022/01/23 05:37:50;;;;;;;6.95;2.40;;;;;;;;;;4980710;28;20164;-70
2022/01/23 05:40:19;;;;;;;9.15;2.20;;;;;;;;;;4985728;28;20062;-70
2022/01/23 05:42:45;;;;;;;5.80;2.03;;;;;;;;;;4980151;28;20566;-70
2022/01/23 05:45:12;;;;;;;4.90;1.80;;;;;;;;;;4998781;28;20045;-70
2022/01/23 05:47:39;;;;;;;6.30;2.00;;;;;;;;;;4984550;28;20484;-69
2022/01/23 05:50:06;;;;;;;6.53;1.70;;;;;;;;;;4966124;28;20181;-73
2022/01/23 05:52:34;;;;;;;7.03;2.10;;;;;;;;;;4987490;28;20105;-70
2022/01/23 05:55:01;;;;;;;5.57;1.70;;;;;;;;;;4965564;28;20042;-70
2022/01/23 05:57:27;;;;;;;6.18;1.90;;;;;;;;;;4985866;28;20626;-70
2022/01/23 05:59:54;;;;;;;5.22;1.67;;;;;;;;;;4966660;28;20049;-70
2022/01/23 06:02:23;;;;;;;7.25;1.90;;;;;;;;;;4981485;28;20480;-72
2022/01/23 06:04:50;;;;;;;6.85;1.77;;;;;;;;;;4980562;28;20109;-70
2022/01/23 06:07:17;;;;;;;5.80;1.75;;;;;;;;;;4978646;28;20045;-71
2022/01/23 06:09:45;;;;;;;5.55;1.80;;;;;;;;;;4987739;28;20104;-70
2022/01/23 06:12:14;;;;;;;6.05;1.77;;;;;;;;;;4984070;28;20026;-70
2022/01/23 06:14:42;;;;;;;5.57;1.60;;;;;;;;;;4986576;28;20507;-70
2022/01/23 06:17:11;;;;;;;7.72;1.80;;;;;;;;;;4983722;28;20048;-71
2022/01/23 06:19:39;;;;;;;6.18;1.90;;;;;;;;;;4987934;28;20033;-70
2022/01/23 06:22:05;;;;;;;7.40;2.00;;;;;;;;;;4979663;28;20034;-71
2022/01/23 06:24:32;;;;;;;6.20;1.70;;;;;;;;;;4987521;28;20507;-70
2022/01/23 06:27:01;;;;;;;7.32;2.00;;;;;;;;;;4980893;28;20425;-70
2022/01/23 06:29:31;;;;;;;6.45;1.80;;;;;;;;;;4983310;28;20085;-70
2022/01/23 06:32:02;;;;;;;6.97;2.10;;;;;;;;;;4976290;28;20041;-69
2022/01/23 06:34:34;;;;;;;6.03;1.90;;;;;;;;;;4987651;28;20157;-70
2022/01/23 06:37:01;;;;;;;9.05;2.25;;;;;;;;;;4980026;28;20557;-71
2022/01/23 06:39:31;;;;;;;8.65;2.08;;;;;;;;;;4988073;28;20104;-71
2022/01/23 06:41:58;;;;;;;6.68;2.10;;;;;;;;;;4978352;28;20185;-71
2022/01/23 06:44:27;;;;;;;6.75;2.03;;;;;;;;;;4987692;28;20666;-71
2022/01/23 06:46:56;;;;;;;6.20;2.17;;;;;;;;;;4977586;28;20068;-71
2022/01/23 06:49:24;;;;;;;7.57;2.30;;;;;;;;;;4983641;28;20044;-71
2022/01/23 06:51:55;;;;;;;8.18;2.50;;;;;;;;;;4978763;28;20025;-71
2022/01/23 06:54:22;;;;;;;6.57;2.08;;;;;;;;;;4990489;28;20045;-71
2022/01/23 06:56:51;;;;;;;7.30;2.22;;;;;;;;;;4980778;28;20034;-71
2022/01/23 06:59:19;;;;;;;6.25;2.15;;;;;;;;;;4984963;28;20493;-71
2022/01/23 07:01:46;;;;;;;6.90;2.35;;;;;;;;;;4976324;28;20503;-71
2022/01/23 07:04:12;;;;;;;6.10;1.98;;;;;;;;;;4980855;28;20022;-71
2022/01/23 07:06:40;;;;;;;6.55;2.17;;;;;;;;;;4984684;28;20133;-70
2022/01/23 07:09:06;;;;;;;7.53;2.33;;;;;;;;;;4974966;28;20066;-70
2022/01/23 07:11:33;;;;;;;6.70;2.13;;;;;;;;;;4983395;28;20099;-70
2022/01/23 07:14:00;;;;;;;6.55;2.00;;;;;;;;;;4981293;28;20040;-70
2022/01/23 07:16:28;;;;;;;6.47;2.00;;;;;;;;;;4982686;28;20026;-70
2022/01/23 07:18:55;;;;;;;6.10;1.90;;;;;;;;;;4981631;28;20030;-70
2022/01/23 07:21:23;;;;;;;7.38;2.25;;;;;;;;;;4998429;28;20490;-70
2022/01/23 07:23:51;;;;;;;7.22;2.10;;;;;;;;;;4975450;28;20053;-70
2022/01/23 07:26:22;;;;;;;7.38;2.38;;;;;;;;;;4984040;28;20033;-70
2022/01/23 07:29:01;;;;;;;7.03;2.20;;;;;;;;;;4981016;28;20082;-70
2022/01/23 07:31:44;;;;;;;8.20;2.58;;;;;;;;;;4981974;28;20038;-70
2022/01/23 07:34:13;;;;;;;6.13;2.30;;;;;;;;;;4981057;28;20500;-70
2022/01/23 07:36:42;;;;;;;8.35;2.90;;;;;;;;;;4982604;28;20156;-71
2022/01/23 07:39:09;;;;;;;9.40;3.50;;;;;;;;;;4976298;28;20033;-71
2022/01/23 07:41:39;;;;;;;11.05;4.10;;;;;;;;;;4980686;28;20091;-71
2022/01/23 07:44:07;;;;;;;9.75;3.45;;;;;;;;;;4980469;28;20033;-71
2022/01/23 07:46:35;;;;;;;7.60;3.28;;;;;;;;;;4984550;28;20942;-71
2022/01/23 07:49:02;;;;;;;8.40;3.10;;;;;;;;;;4982048;28;20030;-71
2022/01/23 07:51:29;;;;;;;7.55;2.97;;;;;;;;;;4978474;28;20030;-71
2022/01/23 07:53:57;;;;;;;8.05;3.15;;;;;;;;;;4976430;28;20042;-71
2022/01/23 07:56:23;;;;;;;7.93;2.90;;;;;;;;;;4985974;28;20030;-71
2022/01/23 07:58:52;;;;;;;7.22;2.65;;;;;;;;;;4982814;28;20448;-71
2022/01/23 08:01:19;;;;;;;8.57;3.08;;;;;;;;;;4985979;28;20030;-71
2022/01/23 08:03:47;;;;;;;7.75;2.65;;;;;;;;;;4983153;28;20032;-71
2022/01/23 08:06:15;;;;;;;7.30;2.90;;;;;;;;;;4978171;28;20053;-70
2022/01/23 08:08:43;;;;;;;7.10;2.50;;;;;;;;;;4984076;28;20038;-71
2022/01/23 08:11:10;;;;;;;6.65;2.38;;;;;;;;;;4980928;28;20050;-70
2022/01/23 08:13:37;;;;;;;7.32;2.70;;;;;;;;;;4979479;28;20088;-70
2022/01/23 08:16:03;;;;;;;7.25;2.90;;;;;;;;;;4976972;28;20034;-71
2022/01/23 08:18:32;;;;;;;;;;;;;;;;;;4982247;28;20037;-70
2022/01/23 08:20:58;;;;;;;12.85;4.75;;;;;;;;;;4975000;28;19914;-70
2022/01/23 08:23:27;;;;;;;14.07;5.72;;;;;;;;;;4986520;28;20042;-70
2022/01/23 08:25:56;;;;;;;14.15;7.00;;;;;;;;;;4980459;28;20594;-70
2022/01/23 08:28:23;;;;;;;14.43;6.68;;;;;;;;;;4998160;28;20119;-72
2022/01/23 08:30:53;;;;;;;12.40;6.07;;;;;;;;;;4977891;28;21053;-71
2022/01/23 08:33:24;;;;;;;11.52;5.40;;;;;;;;;;4981122;28;20045;-71
2022/01/23 08:35:56;;;;;;;10.43;4.72;;;;;;;;;;4979923;28;20042;-70
2022/01/23 08:38:23;;;;;;;11.80;4.25;;;;;;;;;;4961694;28;20041;-71
2022/01/23 08:43:37;;;;;;;8.93;4.32;;;;;;;;;;4978671;28;20651;-72
2022/01/23 08:46:05;;;;;;;10.25;4.50;;;;;;;;;;4980214;28;20159;-71
2022/01/23 08:48:33;;;;;;;11.15;4.63;;;;;;;;;;4967069;28;20414;-71
2022/01/23 08:51:00;;;;;;;10.40;4.95;;;;;;;;;;4967549;28;20125;-72
2022/01/23 08:53:27;;;;;;;10.60;5.20;;;;;;;;;;4984449;28;20168;-72
2022/01/23 08:55:57;;;;;;;11.73;5.68;;;;;;;;;;4950893;28;20053;-72
2022/01/23 08:58:23;;;;;;;11.10;5.45;;;;;;;;;;4987565;28;20034;-72
2022/01/23 09:00:50;;;;;;;11.85;5.43;;;;;;;;;;4982579;28;20555;-72
2022/01/23 09:03:17;;;;;;;12.43;5.97;;;;;;;;;;4986893;28;20784;-71
2022/01/23 09:05:46;;;;;;;12.82;5.78;;;;;;;;;;4986844;28;20053;-71
2022/01/23 09:08:12;;;;;;;12.77;5.45;;;;;;;;;;4987055;28;20042;-71
2022/01/23 09:10:53;;;;;;;;;;;;;;;;;;4986025;28;20034;-72
2022/01/23 09:16:08;;;;;;;14.35;6.80;;;;;;;;;;4947896;28;20058;-71
2022/01/23 09:18:38;;;;;;;13.52;7.43;;;;;;;;;;4966420;28;20052;-72
2022/01/23 09:21:07;;;;;;;21.55;13.25;;;;;;;;;;4969733;28;20077;-72
2022/01/23 09:23:36;;;;;;;32.47;21.77;;;;;;;;;;4988167;28;20108;-69
2022/01/23 09:26:14;;;;;;;34.50;24.20;;;;;;;;;;4982399;28;20029;-70
2022/01/23 09:28:44;;;;;;;33.70;23.55;;;;;;;;;;4979615;28;20045;-71
2022/01/23 09:31:13;;;;;;;45.25;32.92;;;;;;;;;;4985265;28;20063;-70
2022/01/23 09:33:40;;;;;;;49.33;35.58;;;;;;;;;;4981967;28;20096;-72
2022/01/23 09:36:08;;;;;;;38.45;25.58;;;;;;;;;;4978980;28;20038;-71
2022/01/23 09:38:37;;;;;;;31.83;20.25;;;;;;;;;;4988624;28;20045;-70
2022/01/23 09:41:06;;;;;;;28.13;17.75;;;;;;;;;;4985484;28;20033;-71
2022/01/23 09:43:38;;;;;;;28.48;17.52;;;;;;;;;;4985798;28;20151;-70
2022/01/23 09:46:07;;;;;;;27.02;15.95;;;;;;;;;;4982929;28;20080;-70
2022/01/23 09:48:35;;;;;;;25.52;14.50;;;;;;;;;;4984327;28;20038;-70
2022/01/23 09:51:04;;;;;;;23.67;13.50;;;;;;;;;;4977950;28;20044;-71
2022/01/23 09:53:34;;;;;;;21.70;11.93;;;;;;;;;;4989554;28;20041;-70
2022/01/23 09:56:05;;;;;;;21.05;12.23;;;;;;;;;;4977371;28;20545;-70
2022/01/23 09:58:34;;;;;;;17.88;9.77;;;;;;;;;;4983482;28;20043;-70
2022/01/23 10:01:02;;;;;;;18.33;8.77;;;;;;;;;;4978036;28;20042;-72
2022/01/23 10:03:30;;;;;;;18.00;9.68;;;;;;;;;;4986273;28;20036;-70
2022/01/23 10:05:57;;;;;;;14.43;7.32;;;;;;;;;;4983367;28;20042;-71
2022/01/23 10:08:28;;;;;;;13.98;6.93;;;;;;;;;;4988523;28;20041;-71
2022/01/23 10:10:58;;;;;;;12.05;6.30;;;;;;;;;;4981913;28;20112;-71
2022/01/23 10:13:27;;;;;;;13.45;6.68;;;;;;;;;;4984480;28;20033;-71
2022/01/23 10:15:55;;;;;;;10.77;5.70;;;;;;;;;;4983831;28;20042;-71
2022/01/23 10:18:22;;;;;;;9.80;4.80;;;;;;;;;;4950645;28;20108;-72
2022/01/23 10:20:50;;;;;;;10.52;4.22;;;;;;;;;;4980521;28;20034;-70
2022/01/23 10:23:19;;;;;;;8.55;3.13;;;;;;;;;;4981482;28;20042;-70
2022/01/23 10:25:48;;;;;;;9.38;3.40;;;;;;;;;;4976604;28;20045;-70
2022/01/23 10:28:20;;;;;;;9.38;3.60;;;;;;;;;;4987520;28;20042;-70
2022/01/23 10:30:51;;;;;;;8.57;3.00;;;;;;;;;;4984809;28;20264;-71
2022/01/23 10:33:25;;;;;;;8.00;2.90;;;;;;;;;;5001412;28;20042;-71
2022/01/23 10:36:11;;;;;;;16.75;8.65;;;;;;;;;;4942793;28;20046;-71
2022/01/23 10:39:01;;;;;;;8.48;2.85;;;;;;;;;;4932932;28;20063;-69
2022/01/23 10:49:58;;;;;;;7.43;2.30;;;;;;;;;;4945147;28;20200;-70
2022/01/23 10:52:28;;;;;;;7.10;2.30;;;;;;;;;;4946073;28;20727;-70
2022/01/23 10:54:56;;;;;;;5.88;1.95;;;;;;;;;;4942791;28;20083;-69
2022/01/23 10:57:22;;;;;;;7.72;2.40;;;;;;;;;;4945786;28;20027;-72
2022/01/23 10:59:54;;;;;;;7.30;2.38;;;;;;;;;;4942557;28;20663;-70
2022/01/23 11:02:24;;;;;;;8.68;2.55;;;;;;;;;;4930460;28;20134;-70
2022/01/23 11:04:52;;;;;;;7.40;2.33;;;;;;;;;;4944675;28;20039;-70
2022/01/23 11:07:21;;;;;;;9.57;3.10;;;;;;;;;;4946888;28;20042;-71
2022/01/23 11:09:47;;;;;;;8.38;2.75;;;;;;;;;;4941455;28;20164;-69
2022/01/23 11:18:03;;;;;;;9.40;2.83;;;;;;;;;;4940766;28;20604;-70
2022/01/23 11:20:31;;;;;;;8.20;2.50;;;;;;;;;;4942478;28;20038;-70
2022/01/23 11:23:32;;;;;;;8.23;2.65;;;;;;;;;;4940231;28;20599;-70
2022/01/23 11:26:02;;;;;;;10.60;2.70;;;;;;;;;;4948119;28;20590;-70
2022/01/23 11:28:41;;;;;;;7.68;2.25;;;;;;;;;;4999138;28;20033;-69
2022/01/23 11:31:13;;;;;;;13.18;7.20;;;;;;;;;;4990211;28;20536;-70
2022/01/23 11:33:40;;;;;;;8.73;3.00;;;;;;;;;;4962420;28;20237;-70
2022/01/23 11:36:07;;;;;;;9.20;2.33;;;;;;;;;;4980703;28;20037;-69
2022/01/23 11:38:37;;;;;;;8.63;2.80;;;;;;;;;;4978254;28;20662;-69
2022/01/23 11:55:34;;;;;;;8.68;2.85;;;;;;;;;;4958070;28;20114;-69
2022/01/23 11:58:04;;;;;;;12.50;6.30;;;;;;;;;;4956623;28;20173;-69
2022/01/23 12:00:34;;;;;;;8.70;3.17;;;;;;;;;;4958984;28;20053;-70
2022/01/23 12:03:19;;;;;;;10.88;4.80;;;;;;;;;;4953810;28;20671;-70
2022/01/23 12:05:51;;;;;;;10.07;3.73;;;;;;;;;;4944267;28;20865;-69
2022/01/23 12:08:28;;;;;;;10.00;3.65;;;;;;;;;;4958514;28;20042;-71
2022/01/23 12:17:03;;;;;;;7.78;2.88;;;;;;;;;;4934028;28;20088;-69
2022/01/23 12:19:31;;;;;;;8.65;3.40;;;;;;;;;;4956040;28;20034;-70
2022/01/23 12:22:18;;;;;;;7.78;3.00;;;;;;;;;;4956261;28;20046;-69
2022/01/23 12:24:50;;;;;;;10.32;3.95;;;;;;;;;;4951426;28;20034;-69
2022/01/23 12:27:19;;;;;;;8.65;3.13;;;;;;;;;;4958831;28;20604;-70
2022/01/23 12:29:48;;;;;;;8.75;3.17;;;;;;;;;;4968021;28;20511;-70
2022/01/23 12:32:30;;;;;;;8.82;2.95;;;;;;;;;;4979560;28;20061;-69
2022/01/23 12:35:06;;;;;;;9.23;3.85;;;;;;;;;;4977164;28;20139;-69
2022/01/23 12:37:52;;;;;;;8.52;3.20;;;;;;;;;;4979595;28;20030;-71
2022/01/23 12:40:19;;;;;;;;;;;;;;;;;;4987108;28;20026;-71
2022/01/23 12:43:04;;;;;;;7.43;2.50;;;;;;;;;;4992946;28;19909;-70
2022/01/23 12:45:54;;;;;;;8.83;2.33;;;;;;;;;;4994717;28;20095;-70
2022/01/23 12:48:34;;;;;;;8.18;2.67;;;;;;;;;;4982118;28;20045;-70
2022/01/23 12:51:31;;;;;;;8.60;2.45;;;;;;;;;;4979595;28;20030;-70
2022/01/23 12:54:01;;;;;;;9.35;3.80;;;;;;;;;;4975996;28;20030;-69
2022/01/23 12:56:45;;;;;;;9.93;4.18;;;;;;;;;;4980361;28;20289;-69
2022/01/23 12:59:30;;;;;;;9.77;4.68;;;;;;;;;;4982361;28;20038;-69
2022/01/23 13:02:04;;;;;;;10.90;5.68;;;;;;;;;;4978376;28;20048;-70
2022/01/23 13:04:46;;;;;;;9.65;4.38;;;;;;;;;;4981354;28;20040;-69
2022/01/23 13:07:23;;;;;;;8.95;4.18;;;;;;;;;;4979947;28;20053;-69
2022/01/23 13:10:06;;;;;;;12.60;6.22;;;;;;;;;;4977780;28;20566;-69
2022/01/23 13:13:08;;;;;;;12.23;6.50;;;;;;;;;;4985218;28;20128;-69
2022/01/23 13:31:49;;;;;;;12.90;6.32;;;;;;;;;;4980098;28;20898;-70
2022/01/23 13:34:32;;;;;;;10.60;5.25;;;;;;;;;;4981588;28;20282;-70
2022/01/23 13:37:12;;;;;;;10.43;4.47;;;;;;;;;;4973739;28;20400;-69
2022/01/23 13:39:47;;;;;;;10.23;4.68;;;;;;;;;;4978182;28;20038;-69
2022/01/23 14:02:34;;;;;;;13.23;8.30;;;;;;;;;;4980297;28;20168;-70
2022/01/23 14:05:15;;;;;;;17.70;12.75;;;;;;;;;;4980761;28;20814;-70
2022/01/23 14:07:48;;;;;;;16.80;12.48;;;;;;;;;;4980055;28;20604;-69
2022/01/23 14:10:35;;;;;;;27.40;24.20;;;;;;;;;;4979978;28;20042;-69
2022/01/23 14:13:02;;;;;;;;;;;;;;;;;;4978191;28;20042;-69
2022/01/23 14:15:29;;;;;;;17.77;12.38;;;;;;;;;;4983647;28;19924;-72
2022/01/23 14:18:10;;;;;;;17.85;11.90;;;;;;;;;;4977810;28;20022;-69
2022/01/23 14:20:39;;;;;;;13.60;8.30;;;;;;;;;;4978930;28;20104;-68
2022/01/23 14:23:16;;;;;;;12.65;7.43;;;;;;;;;;4973852;28;20091;-68
2022/01/23 14:25:47;;;;;;;13.45;6.70;;;;;;;;;;4979434;28;20023;-68
2022/01/23 14:28:20;;;;;;;13.55;8.10;;;;;;;;;;4979490;28;20042;-69
2022/01/23 14:30:54;;;;;;;14.25;9.13;;;;;;;;;;4974751;28;20205;-69
2022/01/23 14:33:36;;;;;;;13.85;7.03;;;;;;;;;;4978336;28;20035;-69
2022/01/23 14:36:23;;;;;;;14.93;6.43;;;;;;;;;;4976364;28;20046;-70
2022/01/23 14:39:13;;;;;;;13.15;5.70;;;;;;;;;;4961299;28;20080;-69
2022/01/23 14:41:45;;;;;;;11.93;5.50;;;;;;;;;;4983297;28;20034;-70
2022/01/23 14:44:29;;;;;;;11.60;5.80;;;;;;;;;;4981732;28;20060;-70
2022/01/23 14:46:59;;;;;;;11.30;5.82;;;;;;;;;;4977100;28;20108;-68
2022/01/23 14:49:30;;;;;;;11.10;5.18;;;;;;;;;;4982877;28;20128;-68
2022/01/23 14:52:01;;;;;;;13.85;6.22;;;;;;;;;;4977338;28;20042;-69
2022/01/23 14:54:32;;;;;;;12.48;6.07;;;;;;;;;;4967876;28;20091;-69
2022/01/23 14:57:01;;;;;;;12.23;6.13;;;;;;;;;;4975249;28;20133;-70
2022/01/23 14:59:34;;;;;;;12.45;6.45;;;;;;;;;;4986034;28;20026;-69
2022/01/23 15:02:03;;;;;;;16.58;8.77;;;;;;;;;;4978285;28;20057;-69
2022/01/23 15:04:31;;;;;;;14.75;8.00;;;;;;;;;;4982036;28;20487;-69
2022/01/23 15:07:00;;;;;;;13.75;7.85;;;;;;;;;;4996347;28;20048;-69
2022/01/23 15:09:29;;;;;;;16.27;9.60;;;;;;;;;;4983041;28;20034;-69
2022/01/23 15:12:02;;;;;;;17.42;12.10;;;;;;;;;;4976830;28;20572;-69
2022/01/23 15:14:29;;;;;;;16.67;11.50;;;;;;;;;;4982508;28;20042;-69
2022/01/23 15:16:55;;;;;;;14.77;9.80;;;;;;;;;;4979811;28;20052;-69
2022/01/23 15:19:24;;;;;;;17.10;11.68;;;;;;;;;;4983834;28;20615;-70
2022/01/23 15:21:52;;;;;;;17.02;9.95;;;;;;;;;;4975290;28;20049;-69
2022/01/23 15:24:20;;;;;;;16.95;9.73;;;;;;;;;;4984945;28;20033;-69
2022/01/23 15:26:47;;;;;;;15.35;8.93;;;;;;;;;;4975418;28;20075;-69
2022/01/23 15:29:15;;;;;;;16.15;8.38;;;;;;;;;;4984186;28;20038;-69
2022/01/23 15:31:42;;;;;;;15.27;7.82;;;;;;;;;;4983174;28;20049;-70
2022/01/23 15:34:09;;;;;;;;;;;;;;;;;;4980788;28;20052;-69
2022/01/23 15:36:38;;;;;;;15.13;8.75;;;;;;;;;;4980709;28;20550;-69
2022/01/23 15:39:06;;;;;;;17.13;9.55;;;;;;;;;;4976175;28;20213;-69
2022/01/23 15:41:35;;;;;;;16.05;8.82;;;;;;;;;;4979010;28;20038;-70
2022/01/23 15:44:07;;;;;;;15.18;8.77;;;;;;;;;;4978006;28;20088;-69
2022/01/23 15:46:33;;;;;;;15.77;8.73;;;;;;;;;;4982372;28;20044;-68
2022/01/23 15:49:00;;;;;;;;;;;;;;;;;;4975864;28;20037;-69
2022/01/23 15:51:28;;;;;;;15.32;9.02;;;;;;;;;;4983420;28;20344;-69
2022/01/23 15:53:56;;;;;;;16.33;10.00;;;;;;;;;;4975319;28;20065;-71
2022/01/23 15:56:23;;;;;;;20.08;12.75;;;;;;;;;;4981411;28;20741;-69
2022/01/23 15:58:52;;;;;;;17.83;11.55;;;;;;;;;;4980348;28;20064;-69
2022/01/23 16:01:20;;;;;;;18.80;11.18;;;;;;;;;;4993452;28;20031;-69
2022/01/23 16:03:47;;;;;;;15.05;10.05;;;;;;;;;;4974261;28;20108;-69
2022/01/23 16:06:14;;;;;;;18.38;10.45;;;;;;;;;;4979362;28;20050;-69
2022/01/23 16:08:42;;;;;;;14.90;8.38;;;;;;;;;;4981764;28;20587;-70
2022/01/23 16:11:09;;;;;;;15.45;8.88;;;;;;;;;;4979945;28;20119;-68
2022/01/23 16:13:36;;;;;;;17.00;10.35;;;;;;;;;;4967141;28;20144;-68
2022/01/23 16:16:03;;;;;;;15.75;9.35;;;;;;;;;;4979595;28;20129;-69
2022/01/23 16:18:31;;;;;;;17.67;10.65;;;;;;;;;;4979094;28;20026;-69
2022/01/23 16:21:01;;;;;;;21.40;12.55;;;;;;;;;;4976096;28;20076;-69
2022/01/23 16:23:28;;;;;;;17.83;10.82;;;;;;;;;;4983790;28;20087;-69
2022/01/23 16:25:55;;;;;;;14.82;9.15;;;;;;;;;;4963448;28;20052;-68
2022/01/23 16:28:23;;;;;;;16.70;9.60;;;;;;;;;;4984199;28;20483;-69
2022/01/23 16:30:52;;;;;;;23.75;14.15;;;;;;;;;;4940469;28;20535;-69
2022/01/23 16:33:23;;;;;;;19.60;12.15;;;;;;;;;;4958498;28;20532;-69
2022/01/23 16:35:51;;;;;;;19.73;11.30;;;;;;;;;;4946275;28;20349;-69
2022/01/23 16:38:17;;;;;;;;;;;;;;;;;;4957627;28;20292;-70
2022/01/23 16:40:44;;;;;;;20.95;12.38;;;;;;;;;;4955093;28;19917;-70
2022/01/23 16:43:13;;;;;;;16.98;9.43;;;;;;;;;;4947513;28;20031;-70
2022/01/23 16:45:42;;;;;;;15.23;9.18;;;;;;;;;;4957113;28;20034;-70
2022/01/23 16:48:10;;;;;;;13.68;8.85;;;;;;;;;;4940828;28;20061;-72
2022/01/23 16:50:38;;;;;;;15.43;8.77;;;;;;;;;;4955006;28;20146;-70
2022/01/23 16:53:09;;;;;;;13.95;8.10;;;;;;;;;;4952832;28;20053;-69
2022/01/23 16:55:36;;;;;;;16.58;9.10;;;;;;;;;;4944406;28;20773;-71
2022/01/23 16:58:06;;;;;;;16.10;9.70;;;;;;;;;;4955212;28;20043;-70
2022/01/23 17:00:34;;;;;;;17.52;11.00;;;;;;;;;;4958960;28;20034;-68
2022/01/23 17:03:01;;;;;;;16.65;10.02;;;;;;;;;;4955352;28;20030;-69
2022/01/23 17:05:30;;;;;;;18.92;11.40;;;;;;;;;;4945443;28;20509;-69
2022/01/23 17:07:58;;;;;;;17.65;11.15;;;;;;;;;;4956456;28;20054;-69
2022/01/23 17:10:28;;;;;;;16.98;10.60;;;;;;;;;;4960704;28;20727;-71
2022/01/23 17:12:56;;;;;;;18.52;9.60;;;;;;;;;;4955323;28;20078;-69
2022/01/23 17:15:25;;;;;;;18.85;11.02;;;;;;;;;;4958200;28;20034;-69
2022/01/23 17:17:52;;;;;;;27.52;18.85;;;;;;;;;;4959529;28;20828;-69
2022/01/23 17:20:20;;;;;;;21.05;14.75;;;;;;;;;;4949210;28;20042;-70
2022/01/23 17:22:48;;;;;;;19.88;12.20;;;;;;;;;;4957963;28;20039;-70
2022/01/23 17:25:16;;;;;;;17.23;9.70;;;;;;;;;;4959562;28;20141;-70
2022/01/23 17:27:44;;;;;;;16.92;10.25;;;;;;;;;;4979804;28;20085;-71
2022/01/23 17:30:15;;;;;;;18.25;10.15;;;;;;;;;;4984501;28;20029;-70
2022/01/23 17:32:42;;;;;;;17.35;9.13;;;;;;;;;;4967339;28;20047;-70
2022/01/23 17:35:10;;;;;;;16.85;9.90;;;;;;;;;;4979900;28;20062;-69
2022/01/23 17:37:39;;;;;;;15.13;8.27;;;;;;;;;;4985665;28;20795;-70
2022/01/23 17:40:05;;;;;;;16.05;8.48;;;;;;;;;;4980245;28;21998;-70
2022/01/23 17:42:35;;;;;;;17.80;10.73;;;;;;;;;;4983126;28;20065;-70
2022/01/23 17:45:07;;;;;;;18.42;10.00;;;;;;;;;;4978704;28;20129;-70
2022/01/23 17:47:56;;;;;;;19.98;10.40;;;;;;;;;;4967649;28;20030;-70
2022/01/23 17:50:33;;;;;;;20.83;10.88;;;;;;;;;;4981130;28;20637;-70
2022/01/23 17:53:01;;;;;;;18.40;9.88;;;;;;;;;;4982088;28;20797;-69
2022/01/23 17:55:29;;;;;;;21.15;12.73;;;;;;;;;;4982037;28;20026;-69
2022/01/23 17:57:57;;;;;;;21.80;13.52;;;;;;;;;;4979521;28;20076;-70
2022/01/23 18:00:26;;;;;;;23.77;14.27;;;;;;;;;;4984087;28;20034;-69
2022/01/23 18:02:53;;;;;;;27.52;17.35;;;;;;;;;;4979007;28;20103;-69
2022/01/23 18:05:22;;;;;;;31.60;18.42;;;;;;;;;;4985790;28;20057;-70
2022/01/23 18:07:52;;;;;;;23.75;15.88;;;;;;;;;;4978959;28;20046;-70
2022/01/23 18:10:18;;;;;;;31.27;21.25;;;;;;;;;;4985218;28;20076;-70
2022/01/23 18:12:51;;;;;;;;;;;;;;;;;;4978376;28;20041;-69
2022/01/23 18:15:19;;;;;;;16.23;9.27;;;;;;;;;;4981546;28;19918;-69
2022/01/23 18:17:47;;;;;;;19.13;11.15;;;;;;;;;;4982052;28;20037;-69
2022/01/23 18:20:14;;;;;;;18.77;11.45;;;;;;;;;;4982375;28;20480;-71
2022/01/23 18:22:41;;;;;;;19.70;11.45;;;;;;;;;;4984155;28;20029;-72